Time;durP1;ratioP1;P1;durP2;ratioP2;P2;SDS_P1;SDS_P2;PMS_P1;PMS_P2;Temp;Humidity;BMP_temperature;BMP_pressure;BME280_temperature;BME280_humidity;BME280_pressure;Samples;Min_cycle;Max_cycle;Signal;HPM_P1;HPM_P2
2022/02/19 21:26:34;;;;;;;8.00;1.37;;;;;;;;;;6130780;22;1632329;-77
2022/02/19 21:29:01;;;;;;;2.63;1.80;;;;;;;;;;6207365;23;20174;-77
2022/02/19 21:31:28;;;;;;;3.85;1.55;;;;;;;;;;6208939;23;20641;-77
2022/02/19 21:33:55;;;;;;;3.85;1.35;;;;;;;;;;6204626;23;20697;-78
2022/02/19 21:36:22;;;;;;;3.20;1.17;;;;;;;;;;6176626;23;20171;-77
2022/02/19 21:38:50;;;;;;;2.75;1.10;;;;;;;;;;6177780;23;20178;-77
2022/02/19 21:41:17;;;;;;;1.20;1.10;;;;;;;;;;6179907;23;20167;-77
2022/02/19 21:43:45;;;;;;;2.20;1.20;;;;;;;;;;6180698;23;20183;-77
2022/02/19 21:46:12;;;;;;;2.15;1.52;;;;;;;;;;6179801;23;20209;-77
2022/02/19 21:48:40;;;;;;;3.88;1.50;;;;;;;;;;6181718;23;20171;-78
2022/02/19 21:51:07;;;;;;;3.05;1.10;;;;;;;;;;6180681;23;20175;-77
2022/02/19 21:53:34;;;;;;;1.83;1.20;;;;;;;;;;6180733;23;20171;-77
2022/02/19 21:56:01;;;;;;;2.60;1.50;;;;;;;;;;6179939;23;20191;-77
2022/02/19 21:58:28;;;;;;;1.70;1.15;;;;;;;;;;6179453;23;20254;-77
2022/02/19 22:00:57;;;;;;;2.78;1.20;;;;;;;;;;6181087;23;20167;-77
2022/02/19 22:03:24;;;;;;;3.25;1.20;;;;;;;;;;6181513;23;20167;-77
2022/02/19 22:05:51;;;;;;;2.33;1.02;;;;;;;;;;6181093;23;20203;-77
2022/02/19 22:08:19;;;;;;;3.10;1.40;;;;;;;;;;6179495;23;20206;-77
2022/02/19 22:10:46;;;;;;;3.35;1.50;;;;;;;;;;6180382;23;20167;-77
2022/02/19 22:13:13;;;;;;;2.60;1.60;;;;;;;;;;6180038;23;20229;-77
2022/02/19 22:15:40;;;;;;;2.55;1.30;;;;;;;;;;6180579;23;20631;-80
2022/02/19 22:18:17;;;;;;;3.33;1.35;;;;;;;;;;6181684;23;20168;-79
2022/02/19 22:20:44;;;;;;;2.55;1.23;;;;;;;;;;6179745;23;20253;-79
2022/02/19 22:23:11;;;;;;;1.92;1.10;;;;;;;;;;6180708;23;20179;-79
2022/02/19 22:25:39;;;;;;;2.08;1.00;;;;;;;;;;6179032;23;20781;-79
2022/02/19 22:28:07;;;;;;;3.88;1.30;;;;;;;;;;6179579;23;20263;-78
2022/02/19 22:30:34;;;;;;;3.05;1.80;;;;;;;;;;6180818;23;20171;-81
2022/02/19 22:33:03;;;;;;;3.85;1.58;;;;;;;;;;6180772;23;20168;-80
2022/02/19 22:35:33;;;;;;;2.08;1.42;;;;;;;;;;6180658;23;20197;-78
2022/02/19 22:38:01;;;;;;;1.15;1.05;;;;;;;;;;6180300;23;20555;-79
2022/02/19 22:40:29;;;;;;;3.22;1.15;;;;;;;;;;6182614;23;20178;-79
2022/02/19 22:42:56;;;;;;;3.60;1.30;;;;;;;;;;6178290;23;20172;-81
2022/02/19 22:45:23;;;;;;;1.92;1.30;;;;;;;;;;6179909;23;20195;-79
2022/02/19 22:47:51;;;;;;;2.47;1.20;;;;;;;;;;6177265;23;20187;-79
2022/02/19 22:50:19;;;;;;;2.58;1.40;;;;;;;;;;6180825;23;20170;-80
2022/02/19 22:52:48;;;;;;;6.18;1.50;;;;;;;;;;6180843;23;20176;-80
2022/02/19 22:55:15;;;;;;;2.75;1.98;;;;;;;;;;6179716;23;20499;-80
2022/02/19 22:57:43;;;;;;;3.15;1.60;;;;;;;;;;6181491;23;20178;-78
2022/02/19 23:00:15;;;;;;;2.90;1.70;;;;;;;;;;6182661;23;20171;-79
2022/02/19 23:02:43;;;;;;;6.03;1.77;;;;;;;;;;6180813;23;20168;-79
2022/02/19 23:07:53;;;;;;;4.35;2.40;;;;;;;;;;6179304;23;20250;-79
2022/02/19 23:10:20;;;;;;;6.68;2.20;;;;;;;;;;6178727;23;20501;-78
2022/02/19 23:12:47;;;;;;;7.43;1.80;;;;;;;;;;6179032;23;20168;-82
2022/02/19 23:15:14;;;;;;;6.00;2.00;;;;;;;;;;6180959;23;20218;-80
2022/02/19 23:17:42;;;;;;;8.18;2.00;;;;;;;;;;6182670;23;20254;-80
2022/02/19 23:20:09;;;;;;;6.13;2.67;;;;;;;;;;6183015;23;20171;-80
2022/02/19 23:22:37;;;;;;;8.95;2.75;;;;;;;;;;6182756;23;20167;-78
2022/02/19 23:25:06;;;;;;;5.25;2.03;;;;;;;;;;6181220;23;20286;-79
2022/02/19 23:27:34;;;;;;;5.45;2.00;;;;;;;;;;6181677;23;20547;-79
2022/02/19 23:30:01;;;;;;;5.53;2.65;;;;;;;;;;6181428;23;20631;-79
2022/02/19 23:32:30;;;;;;;7.35;2.60;;;;;;;;;;6180650;23;20512;-78
2022/02/19 23:34:58;;;;;;;8.75;2.58;;;;;;;;;;6182495;23;20196;-79
2022/02/19 23:37:27;;;;;;;6.85;2.38;;;;;;;;;;6181638;23;20227;-79
2022/02/19 23:39:56;;;;;;;9.38;2.95;;;;;;;;;;6181922;23;20225;-80
2022/02/19 23:42:24;;;;;;;5.35;2.00;;;;;;;;;;6181337;23;20636;-80
2022/02/19 23:44:51;;;;;;;6.57;2.40;;;;;;;;;;6179226;23;20515;-78
2022/02/19 23:47:18;;;;;;;6.03;2.13;;;;;;;;;;6181056;23;20199;-80
2022/02/19 23:49:45;;;;;;;4.50;2.22;;;;;;;;;;6180745;23;20505;-78
2022/02/19 23:52:13;;;;;;;4.18;2.20;;;;;;;;;;6180586;23;20168;-79
2022/02/19 23:54:40;;;;;;;4.20;2.23;;;;;;;;;;6181053;23;20272;-79
2022/02/19 23:57:07;;;;;;;5.20;2.15;;;;;;;;;;6181376;23;20705;-78
2022/02/19 23:59:35;;;;;;;7.28;3.20;;;;;;;;;;6180248;23;20273;-78
